sensor_id;sensor_type;location;lat;lon;timestamp;P1;durP1;ratioP1;P2;durP2;ratioP2
13941;SDS011;7043;51.630;7.254;2023-02-01T00:01:51;21.10;;;9.13;;
13941;SDS011;7043;51.630;7.254;2023-02-01T00:04:17;23.60;;;10.20;;
13941;SDS011;7043;51.630;7.254;2023-02-01T00:06:43;21.43;;;9.23;;
13941;SDS011;7043;51.630;7.254;2023-02-01T00:09:10;17.93;;;9.07;;
13941;SDS011;7043;51.630;7.254;2023-02-01T00:11:36;21.57;;;9.07;;
13941;SDS011;7043;51.630;7.254;2023-02-01T00:14:02;18.73;;;8.73;;
13941;SDS011;7043;51.630;7.254;2023-02-01T00:16:29;21.53;;;9.37;;
13941;SDS011;7043;51.630;7.254;2023-02-01T00:19:02;18.97;;;8.33;;
13941;SDS011;7043;51.630;7.254;2023-02-01T00:21:29;22.30;;;8.67;;
13941;SDS011;7043;51.630;7.254;2023-02-01T00:23:56;19.03;;;8.17;;
13941;SDS011;7043;51.630;7.254;2023-02-01T00:26:24;19.60;;;7.83;;
13941;SDS011;7043;51.630;7.254;2023-02-01T00:28:53;17.10;;;7.00;;
13941;SDS011;7043;51.630;7.254;2023-02-01T00:31:19;17.90;;;6.97;;
13941;SDS011;7043;51.630;7.254;2023-02-01T00:33:48;21.80;;;7.00;;
13941;SDS011;7043;51.630;7.254;2023-02-01T00:36:15;16.20;;;6.20;;
13941;SDS011;7043;51.630;7.254;2023-02-01T00:38:41;16.37;;;6.20;;
13941;SDS011;7043;51.630;7.254;2023-02-01T00:41:09;10.70;;;4.87;;
13941;SDS011;7043;51.630;7.254;2023-02-01T00:43:35;13.97;;;4.63;;
13941;SDS011;7043;51.630;7.254;2023-02-01T00:46:02;13.97;;;5.27;;
13941;SDS011;7043;51.630;7.254;2023-02-01T00:48:28;13.63;;;4.60;;
13941;SDS011;7043;51.630;7.254;2023-02-01T00:50:54;16.87;;;4.70;;
13941;SDS011;7043;51.630;7.254;2023-02-01T00:53:24;13.70;;;4.37;;
13941;SDS011;7043;51.630;7.254;2023-02-01T00:55:50;10.33;;;3.77;;
13941;SDS011;7043;51.630;7.254;2023-02-01T00:58:16;11.70;;;3.43;;
13941;SDS011;7043;51.630;7.254;2023-02-01T01:00:44;15.33;;;4.33;;
13941;SDS011;7043;51.630;7.254;2023-02-01T01:03:11;13.60;;;3.70;;
13941;SDS011;7043;51.630;7.254;2023-02-01T01:05:47;13.97;;;4.03;;
13941;SDS011;7043;51.630;7.254;2023-02-01T01:08:13;11.47;;;3.87;;
13941;SDS011;7043;51.630;7.254;2023-02-01T01:10:39;12.50;;;3.97;;
13941;SDS011;7043;51.630;7.254;2023-02-01T01:13:05;11.60;;;3.83;;
13941;SDS011;7043;51.630;7.254;2023-02-01T01:15:35;14.20;;;3.40;;
13941;SDS011;7043;51.630;7.254;2023-02-01T01:18:01;13.90;;;3.93;;
13941;SDS011;7043;51.630;7.254;2023-02-01T01:20:30;13.37;;;3.17;;
13941;SDS011;7043;51.630;7.254;2023-02-01T01:22:56;13.57;;;4.10;;
13941;SDS011;7043;51.630;7.254;2023-02-01T01:25:22;16.40;;;4.90;;
13941;SDS011;7043;51.630;7.254;2023-02-01T01:27:48;11.10;;;3.00;;
13941;SDS011;7043;51.630;7.254;2023-02-01T01:30:15;11.33;;;3.33;;
13941;SDS011;7043;51.630;7.254;2023-02-01T01:32:41;15.93;;;3.97;;
13941;SDS011;7043;51.630;7.254;2023-02-01T01:35:07;17.00;;;3.77;;
13941;SDS011;7043;51.630;7.254;2023-02-01T01:37:33;11.77;;;4.20;;
13941;SDS011;7043;51.630;7.254;2023-02-01T01:40:03;14.50;;;4.00;;
13941;SDS011;7043;51.630;7.254;2023-02-01T01:42:29;13.47;;;3.50;;
13941;SDS011;7043;51.630;7.254;2023-02-01T01:47:21;14.47;;;3.40;;
13941;SDS011;7043;51.630;7.254;2023-02-01T01:49:47;13.60;;;4.00;;
13941;SDS011;7043;51.630;7.254;2023-02-01T01:52:13;14.73;;;3.10;;
13941;SDS011;7043;51.630;7.254;2023-02-01T01:54:44;10.27;;;2.90;;
13941;SDS011;7043;51.630;7.254;2023-02-01T01:57:14;9.50;;;3.40;;
13941;SDS011;7043;51.630;7.254;2023-02-01T01:59:43;14.43;;;3.67;;
13941;SDS011;7043;51.630;7.254;2023-02-01T02:02:12;14.27;;;3.60;;
13941;SDS011;7043;51.630;7.254;2023-02-01T02:04:38;16.80;;;3.70;;
13941;SDS011;7043;51.630;7.254;2023-02-01T02:07:09;13.73;;;4.00;;
13941;SDS011;7043;51.630;7.254;2023-02-01T02:09:36;10.23;;;3.57;;
13941;SDS011;7043;51.630;7.254;2023-02-01T02:12:02;13.37;;;3.93;;
13941;SDS011;7043;51.630;7.254;2023-02-01T02:14:29;12.20;;;3.37;;
13941;SDS011;7043;51.630;7.254;2023-02-01T02:32:24;11.27;;;4.20;;
13941;SDS011;7043;51.630;7.254;2023-02-01T02:42:25;13.03;;;4.07;;
13941;SDS011;7043;51.630;7.254;2023-02-01T02:45:17;16.13;;;4.17;;
13941;SDS011;7043;51.630;7.254;2023-02-01T02:50:50;14.73;;;3.97;;
13941;SDS011;7043;51.630;7.254;2023-02-01T02:56:40;14.63;;;4.17;;
13941;SDS011;7043;51.630;7.254;2023-02-01T02:59:26;14.97;;;3.93;;
13941;SDS011;7043;51.630;7.254;2023-02-01T03:02:13;14.60;;;3.97;;
13941;SDS011;7043;51.630;7.254;2023-02-01T03:04:58;9.40;;;2.67;;
13941;SDS011;7043;51.630;7.254;2023-02-01T03:10:10;13.50;;;4.03;;
13941;SDS011;7043;51.630;7.254;2023-02-01T03:12:42;15.13;;;3.77;;
13941;SDS011;7043;51.630;7.254;2023-02-01T03:15:21;11.90;;;3.37;;
13941;SDS011;7043;51.630;7.254;2023-02-01T03:17:51;12.03;;;4.07;;
13941;SDS011;7043;51.630;7.254;2023-02-01T03:20:18;14.57;;;3.50;;
13941;SDS011;7043;51.630;7.254;2023-02-01T03:22:47;11.77;;;2.83;;
13941;SDS011;7043;51.630;7.254;2023-02-01T03:25:16;13.47;;;3.80;;
13941;SDS011;7043;51.630;7.254;2023-02-01T03:27:52;10.97;;;2.77;;
13941;SDS011;7043;51.630;7.254;2023-02-01T03:30:29;6.80;;;2.37;;
13941;SDS011;7043;51.630;7.254;2023-02-01T03:32:56;11.93;;;3.73;;
13941;SDS011;7043;51.630;7.254;2023-02-01T03:38:19;13.13;;;3.90;;
13941;SDS011;7043;51.630;7.254;2023-02-01T03:40:42;8.83;;;2.30;;
13941;SDS011;7043;51.630;7.254;2023-02-01T03:43:10;14.43;;;3.50;;
13941;SDS011;7043;51.630;7.254;2023-02-01T03:45:38;13.37;;;3.00;;
13941;SDS011;7043;51.630;7.254;2023-02-01T03:48:07;11.87;;;3.57;;
13941;SDS011;7043;51.630;7.254;2023-02-01T03:50:35;12.60;;;3.50;;
13941;SDS011;7043;51.630;7.254;2023-02-01T03:53:14;14.03;;;3.47;;
13941;SDS011;7043;51.630;7.254;2023-02-01T03:55:42;11.87;;;3.53;;
13941;SDS011;7043;51.630;7.254;2023-02-01T04:00:34;15.30;;;3.43;;
13941;SDS011;7043;51.630;7.254;2023-02-01T04:03:00;14.77;;;3.30;;
13941;SDS011;7043;51.630;7.254;2023-02-01T04:05:27;15.57;;;3.43;;
13941;SDS011;7043;51.630;7.254;2023-02-01T04:07:52;8.30;;;2.33;;
13941;SDS011;7043;51.630;7.254;2023-02-01T04:10:19;14.20;;;3.40;;
13941;SDS011;7043;51.630;7.254;2023-02-01T04:12:45;8.77;;;2.70;;
13941;SDS011;7043;51.630;7.254;2023-02-01T04:15:11;8.77;;;2.80;;
13941;SDS011;7043;51.630;7.254;2023-02-01T04:17:37;11.00;;;3.27;;
13941;SDS011;7043;51.630;7.254;2023-02-01T04:20:03;15.07;;;3.77;;
13941;SDS011;7043;51.630;7.254;2023-02-01T04:22:29;17.73;;;3.97;;
13941;SDS011;7043;51.630;7.254;2023-02-01T04:24:55;14.67;;;4.00;;
13941;SDS011;7043;51.630;7.254;2023-02-01T04:27:21;12.03;;;2.53;;
13941;SDS011;7043;51.630;7.254;2023-02-01T04:29:48;11.60;;;3.33;;
13941;SDS011;7043;51.630;7.254;2023-02-01T04:32:17;19.93;;;4.57;;
13941;SDS011;7043;51.630;7.254;2023-02-01T04:34:44;16.13;;;4.20;;
13941;SDS011;7043;51.630;7.254;2023-02-01T04:37:10;12.80;;;3.87;;
13941;SDS011;7043;51.630;7.254;2023-02-01T04:39:36;18.23;;;3.77;;
13941;SDS011;7043;51.630;7.254;2023-02-01T04:42:03;13.57;;;3.20;;
13941;SDS011;7043;51.630;7.254;2023-02-01T04:44:29;12.57;;;2.97;;
13941;SDS011;7043;51.630;7.254;2023-02-01T04:46:55;16.73;;;3.77;;
13941;SDS011;7043;51.630;7.254;2023-02-01T04:49:21;13.83;;;3.43;;
13941;SDS011;7043;51.630;7.254;2023-02-01T04:51:47;17.67;;;3.40;;
13941;SDS011;7043;51.630;7.254;2023-02-01T04:54:13;20.10;;;4.30;;
13941;SDS011;7043;51.630;7.254;2023-02-01T04:56:39;18.43;;;4.30;;
13941;SDS011;7043;51.630;7.254;2023-02-01T04:59:06;13.37;;;3.90;;
13941;SDS011;7043;51.630;7.254;2023-02-01T05:01:32;9.97;;;3.20;;
13941;SDS011;7043;51.630;7.254;2023-02-01T05:03:58;16.27;;;4.17;;
13941;SDS011;7043;51.630;7.254;2023-02-01T05:06:24;15.63;;;4.00;;
13941;SDS011;7043;51.630;7.254;2023-02-01T05:08:50;10.23;;;3.47;;
13941;SDS011;7043;51.630;7.254;2023-02-01T05:11:16;14.50;;;4.13;;
13941;SDS011;7043;51.630;7.254;2023-02-01T05:14:00;14.17;;;3.40;;
13941;SDS011;7043;51.630;7.254;2023-02-01T05:16:26;20.00;;;3.80;;
13941;SDS011;7043;51.630;7.254;2023-02-01T05:18:53;14.63;;;3.90;;
13941;SDS011;7043;51.630;7.254;2023-02-01T05:21:19;15.33;;;3.40;;
13941;SDS011;7043;51.630;7.254;2023-02-01T05:23:45;13.60;;;3.77;;
13941;SDS011;7043;51.630;7.254;2023-02-01T05:26:29;13.90;;;4.10;;
13941;SDS011;7043;51.630;7.254;2023-02-01T05:28:56;11.50;;;3.30;;
13941;SDS011;7043;51.630;7.254;2023-02-01T05:31:23;11.10;;;3.27;;
13941;SDS011;7043;51.630;7.254;2023-02-01T05:33:49;11.97;;;3.67;;
13941;SDS011;7043;51.630;7.254;2023-02-01T05:36:16;13.90;;;3.70;;
13941;SDS011;7043;51.630;7.254;2023-02-01T05:38:42;13.40;;;3.50;;
13941;SDS011;7043;51.630;7.254;2023-02-01T05:41:17;10.17;;;3.20;;
13941;SDS011;7043;51.630;7.254;2023-02-01T05:43:43;12.73;;;2.70;;
13941;SDS011;7043;51.630;7.254;2023-02-01T05:46:09;15.20;;;4.10;;
13941;SDS011;7043;51.630;7.254;2023-02-01T05:48:40;19.73;;;4.80;;
13941;SDS011;7043;51.630;7.254;2023-02-01T05:51:06;18.63;;;6.07;;
13941;SDS011;7043;51.630;7.254;2023-02-01T05:53:32;14.30;;;3.67;;
13941;SDS011;7043;51.630;7.254;2023-02-01T05:56:02;14.93;;;3.93;;
13941;SDS011;7043;51.630;7.254;2023-02-01T05:58:28;20.47;;;5.13;;
13941;SDS011;7043;51.630;7.254;2023-02-01T06:00:56;15.53;;;4.03;;
13941;SDS011;7043;51.630;7.254;2023-02-01T06:03:29;18.10;;;4.10;;
13941;SDS011;7043;51.630;7.254;2023-02-01T06:05:55;13.20;;;4.43;;
13941;SDS011;7043;51.630;7.254;2023-02-01T06:08:21;18.47;;;4.50;;
13941;SDS011;7043;51.630;7.254;2023-02-01T06:10:50;12.53;;;4.07;;
13941;SDS011;7043;51.630;7.254;2023-02-01T06:13:16;17.37;;;3.70;;
13941;SDS011;7043;51.630;7.254;2023-02-01T06:15:42;16.93;;;4.57;;
13941;SDS011;7043;51.630;7.254;2023-02-01T06:18:09;16.60;;;4.73;;
13941;SDS011;7043;51.630;7.254;2023-02-01T06:20:35;14.87;;;4.20;;
13941;SDS011;7043;51.630;7.254;2023-02-01T06:23:01;14.93;;;4.70;;
13941;SDS011;7043;51.630;7.254;2023-02-01T06:25:27;14.30;;;4.60;;
13941;SDS011;7043;51.630;7.254;2023-02-01T06:27:55;13.90;;;3.83;;
13941;SDS011;7043;51.630;7.254;2023-02-01T06:30:24;14.77;;;4.10;;
13941;SDS011;7043;51.630;7.254;2023-02-01T06:32:50;18.03;;;4.43;;
13941;SDS011;7043;51.630;7.254;2023-02-01T06:35:18;21.33;;;4.93;;
13941;SDS011;7043;51.630;7.254;2023-02-01T06:37:44;17.43;;;4.17;;
13941;SDS011;7043;51.630;7.254;2023-02-01T06:40:10;15.43;;;3.87;;
13941;SDS011;7043;51.630;7.254;2023-02-01T06:42:36;11.77;;;3.40;;
13941;SDS011;7043;51.630;7.254;2023-02-01T06:45:02;14.57;;;3.87;;
13941;SDS011;7043;51.630;7.254;2023-02-01T06:47:29;15.70;;;3.63;;
13941;SDS011;7043;51.630;7.254;2023-02-01T06:49:56;18.47;;;4.10;;
13941;SDS011;7043;51.630;7.254;2023-02-01T06:52:22;15.47;;;3.03;;
13941;SDS011;7043;51.630;7.254;2023-02-01T06:54:48;8.47;;;2.80;;
13941;SDS011;7043;51.630;7.254;2023-02-01T06:57:14;14.10;;;3.60;;
13941;SDS011;7043;51.630;7.254;2023-02-01T06:59:40;11.53;;;3.47;;
13941;SDS011;7043;51.630;7.254;2023-02-01T07:02:09;17.10;;;4.27;;
13941;SDS011;7043;51.630;7.254;2023-02-01T07:04:35;13.23;;;3.60;;
13941;SDS011;7043;51.630;7.254;2023-02-01T07:07:01;16.67;;;4.23;;
13941;SDS011;7043;51.630;7.254;2023-02-01T07:09:31;11.57;;;3.40;;
13941;SDS011;7043;51.630;7.254;2023-02-01T07:11:57;15.43;;;4.40;;
13941;SDS011;7043;51.630;7.254;2023-02-01T07:14:23;16.40;;;4.17;;
13941;SDS011;7043;51.630;7.254;2023-02-01T07:16:51;15.97;;;4.03;;
13941;SDS011;7043;51.630;7.254;2023-02-01T07:19:17;19.90;;;4.10;;
13941;SDS011;7043;51.630;7.254;2023-02-01T07:21:43;14.33;;;4.10;;
13941;SDS011;7043;51.630;7.254;2023-02-01T07:24:13;16.70;;;4.23;;
13941;SDS011;7043;51.630;7.254;2023-02-01T07:26:39;13.30;;;3.10;;
13941;SDS011;7043;51.630;7.254;2023-02-01T07:29:05;17.80;;;4.60;;
13941;SDS011;7043;51.630;7.254;2023-02-01T07:31:31;15.17;;;4.03;;
13941;SDS011;7043;51.630;7.254;2023-02-01T07:33:57;18.33;;;4.27;;
13941;SDS011;7043;51.630;7.254;2023-02-01T07:36:28;14.07;;;3.70;;
13941;SDS011;7043;51.630;7.254;2023-02-01T07:38:54;19.50;;;4.30;;
13941;SDS011;7043;51.630;7.254;2023-02-01T07:41:20;16.30;;;4.17;;
13941;SDS011;7043;51.630;7.254;2023-02-01T07:43:46;15.07;;;3.87;;
13941;SDS011;7043;51.630;7.254;2023-02-01T07:46:12;20.47;;;5.30;;
13941;SDS011;7043;51.630;7.254;2023-02-01T07:48:40;18.47;;;4.50;;
13941;SDS011;7043;51.630;7.254;2023-02-01T07:51:08;14.80;;;4.37;;
13941;SDS011;7043;51.630;7.254;2023-02-01T07:53:35;8.67;;;2.90;;
13941;SDS011;7043;51.630;7.254;2023-02-01T07:56:01;21.90;;;5.63;;
13941;SDS011;7043;51.630;7.254;2023-02-01T07:58:28;15.47;;;3.97;;
13941;SDS011;7043;51.630;7.254;2023-02-01T08:00:54;17.17;;;4.23;;
13941;SDS011;7043;51.630;7.254;2023-02-01T08:03:40;13.83;;;4.03;;
13941;SDS011;7043;51.630;7.254;2023-02-01T08:06:06;16.73;;;4.43;;
13941;SDS011;7043;51.630;7.254;2023-02-01T08:08:32;14.10;;;4.23;;
13941;SDS011;7043;51.630;7.254;2023-02-01T08:10:59;19.53;;;4.93;;
13941;SDS011;7043;51.630;7.254;2023-02-01T08:13:26;13.63;;;4.17;;
13941;SDS011;7043;51.630;7.254;2023-02-01T08:15:56;15.23;;;4.50;;
13941;SDS011;7043;51.630;7.254;2023-02-01T08:18:22;17.00;;;4.90;;
13941;SDS011;7043;51.630;7.254;2023-02-01T08:20:48;15.57;;;3.60;;
13941;SDS011;7043;51.630;7.254;2023-02-01T08:23:15;19.93;;;4.93;;
13941;SDS011;7043;51.630;7.254;2023-02-01T08:25:42;15.43;;;4.97;;
13941;SDS011;7043;51.630;7.254;2023-02-01T08:28:08;14.60;;;4.50;;
13941;SDS011;7043;51.630;7.254;2023-02-01T08:30:35;17.73;;;4.70;;
13941;SDS011;7043;51.630;7.254;2023-02-01T08:33:02;11.87;;;3.33;;
13941;SDS011;7043;51.630;7.254;2023-02-01T08:35:28;12.20;;;3.67;;
13941;SDS011;7043;51.630;7.254;2023-02-01T08:37:54;13.73;;;3.97;;
13941;SDS011;7043;51.630;7.254;2023-02-01T08:40:20;14.97;;;4.60;;
13941;SDS011;7043;51.630;7.254;2023-02-01T08:42:46;17.13;;;4.00;;
13941;SDS011;7043;51.630;7.254;2023-02-01T08:45:27;17.93;;;4.63;;
13941;SDS011;7043;51.630;7.254;2023-02-01T08:47:56;16.53;;;4.57;;
13941;SDS011;7043;51.630;7.254;2023-02-01T08:50:23;14.17;;;4.37;;
13941;SDS011;7043;51.630;7.254;2023-02-01T08:52:49;15.17;;;4.70;;
13941;SDS011;7043;51.630;7.254;2023-02-01T08:55:15;16.43;;;4.87;;
13941;SDS011;7043;51.630;7.254;2023-02-01T08:57:41;17.00;;;4.57;;
13941;SDS011;7043;51.630;7.254;2023-02-01T09:02:59;16.73;;;5.33;;
13941;SDS011;7043;51.630;7.254;2023-02-01T09:05:26;13.20;;;3.90;;
13941;SDS011;7043;51.630;7.254;2023-02-01T09:07:58;16.20;;;4.77;;
13941;SDS011;7043;51.630;7.254;2023-02-01T09:10:24;13.43;;;4.33;;
13941;SDS011;7043;51.630;7.254;2023-02-01T09:12:51;11.37;;;3.23;;
13941;SDS011;7043;51.630;7.254;2023-02-01T09:15:17;11.97;;;4.00;;
13941;SDS011;7043;51.630;7.254;2023-02-01T09:20:12;14.70;;;4.70;;
13941;SDS011;7043;51.630;7.254;2023-02-01T09:22:38;17.87;;;5.90;;
13941;SDS011;7043;51.630;7.254;2023-02-01T09:25:04;22.13;;;5.33;;
13941;SDS011;7043;51.630;7.254;2023-02-01T09:27:32;18.00;;;4.47;;
13941;SDS011;7043;51.630;7.254;2023-02-01T09:29:59;15.93;;;5.20;;
13941;SDS011;7043;51.630;7.254;2023-02-01T09:32:25;15.50;;;4.87;;
13941;SDS011;7043;51.630;7.254;2023-02-01T09:34:51;18.13;;;4.70;;
13941;SDS011;7043;51.630;7.254;2023-02-01T09:37:18;12.10;;;4.50;;
13941;SDS011;7043;51.630;7.254;2023-02-01T09:39:44;12.90;;;3.97;;
13941;SDS011;7043;51.630;7.254;2023-02-01T09:47:21;14.73;;;4.37;;
13941;SDS011;7043;51.630;7.254;2023-02-01T09:49:55;18.27;;;6.13;;
13941;SDS011;7043;51.630;7.254;2023-02-01T09:52:25;11.93;;;3.57;;
13941;SDS011;7043;51.630;7.254;2023-02-01T09:54:54;17.30;;;5.80;;
13941;SDS011;7043;51.630;7.254;2023-02-01T09:57:30;14.60;;;4.13;;
13941;SDS011;7043;51.630;7.254;2023-02-01T10:00:03;16.27;;;4.43;;
13941;SDS011;7043;51.630;7.254;2023-02-01T10:02:31;18.80;;;4.57;;
13941;SDS011;7043;51.630;7.254;2023-02-01T10:05:01;17.30;;;5.57;;
13941;SDS011;7043;51.630;7.254;2023-02-01T10:07:32;17.40;;;5.30;;
13941;SDS011;7043;51.630;7.254;2023-02-01T10:10:35;15.73;;;5.20;;
13941;SDS011;7043;51.630;7.254;2023-02-01T10:13:04;14.53;;;3.93;;
13941;SDS011;7043;51.630;7.254;2023-02-01T10:26:03;16.13;;;4.97;;
13941;SDS011;7043;51.630;7.254;2023-02-01T10:28:32;13.83;;;4.33;;
13941;SDS011;7043;51.630;7.254;2023-02-01T10:30:59;13.77;;;4.20;;
13941;SDS011;7043;51.630;7.254;2023-02-01T10:35:58;18.70;;;4.83;;
13941;SDS011;7043;51.630;7.254;2023-02-01T10:38:28;15.40;;;4.87;;
13941;SDS011;7043;51.630;7.254;2023-02-01T10:40:57;16.20;;;5.27;;
13941;SDS011;7043;51.630;7.254;2023-02-01T10:43:26;13.77;;;4.37;;
13941;SDS011;7043;51.630;7.254;2023-02-01T10:45:52;14.10;;;4.27;;
13941;SDS011;7043;51.630;7.254;2023-02-01T10:48:18;11.27;;;3.40;;
13941;SDS011;7043;51.630;7.254;2023-02-01T10:55:52;10.67;;;3.93;;
13941;SDS011;7043;51.630;7.254;2023-02-01T10:58:20;14.50;;;4.33;;
13941;SDS011;7043;51.630;7.254;2023-02-01T11:01:06;13.93;;;5.00;;
13941;SDS011;7043;51.630;7.254;2023-02-01T11:03:38;16.40;;;4.57;;
13941;SDS011;7043;51.630;7.254;2023-02-01T11:08:52;10.53;;;3.73;;
13941;SDS011;7043;51.630;7.254;2023-02-01T11:11:24;15.83;;;4.50;;
13941;SDS011;7043;51.630;7.254;2023-02-01T11:13:57;14.50;;;4.20;;
13941;SDS011;7043;51.630;7.254;2023-02-01T11:16:35;16.93;;;5.13;;
13941;SDS011;7043;51.630;7.254;2023-02-01T11:19:03;14.13;;;4.20;;
13941;SDS011;7043;51.630;7.254;2023-02-01T11:21:29;8.57;;;3.37;;
13941;SDS011;7043;51.630;7.254;2023-02-01T11:23:55;16.13;;;4.63;;
13941;SDS011;7043;51.630;7.254;2023-02-01T11:26:27;15.60;;;4.80;;
13941;SDS011;7043;51.630;7.254;2023-02-01T11:28:58;10.93;;;3.70;;
13941;SDS011;7043;51.630;7.254;2023-02-01T11:31:25;16.63;;;4.13;;
13941;SDS011;7043;51.630;7.254;2023-02-01T11:33:53;13.87;;;4.30;;
13941;SDS011;7043;51.630;7.254;2023-02-01T11:36:24;16.20;;;4.93;;
13941;SDS011;7043;51.630;7.254;2023-02-01T11:38:53;15.00;;;4.00;;
13941;SDS011;7043;51.630;7.254;2023-02-01T11:41:21;14.70;;;3.70;;
13941;SDS011;7043;51.630;7.254;2023-02-01T11:43:55;12.83;;;4.43;;
13941;SDS011;7043;51.630;7.254;2023-02-01T11:46:23;17.47;;;4.93;;
13941;SDS011;7043;51.630;7.254;2023-02-01T11:48:53;12.20;;;3.77;;
13941;SDS011;7043;51.630;7.254;2023-02-01T11:56:37;11.67;;;4.20;;
13941;SDS011;7043;51.630;7.254;2023-02-01T12:01:43;11.63;;;4.37;;
13941;SDS011;7043;51.630;7.254;2023-02-01T12:04:35;11.60;;;3.83;;
13941;SDS011;7043;51.630;7.254;2023-02-01T12:07:14;14.10;;;4.50;;
13941;SDS011;7043;51.630;7.254;2023-02-01T12:15:06;14.60;;;3.90;;
13941;SDS011;7043;51.630;7.254;2023-02-01T12:25:26;14.17;;;4.13;;
13941;SDS011;7043;51.630;7.254;2023-02-01T12:28:06;13.93;;;4.03;;
13941;SDS011;7043;51.630;7.254;2023-02-01T12:33:20;17.47;;;4.70;;
13941;SDS011;7043;51.630;7.254;2023-02-01T12:36:08;16.37;;;4.30;;
13941;SDS011;7043;51.630;7.254;2023-02-01T12:38:42;14.33;;;4.67;;
13941;SDS011;7043;51.630;7.254;2023-02-01T12:46:46;12.70;;;4.07;;
13941;SDS011;7043;51.630;7.254;2023-02-01T12:49:32;17.50;;;4.30;;
13941;SDS011;7043;51.630;7.254;2023-02-01T12:52:02;14.27;;;4.57;;
13941;SDS011;7043;51.630;7.254;2023-02-01T12:57:02;17.20;;;5.63;;
13941;SDS011;7043;51.630;7.254;2023-02-01T12:59:38;13.53;;;5.50;;
13941;SDS011;7043;51.630;7.254;2023-02-01T13:07:45;16.13;;;4.37;;
13941;SDS011;7043;51.630;7.254;2023-02-01T13:10:18;10.10;;;3.70;;
13941;SDS011;7043;51.630;7.254;2023-02-01T13:15:36;11.30;;;4.80;;
13941;SDS011;7043;51.630;7.254;2023-02-01T13:18:04;9.00;;;2.93;;
13941;SDS011;7043;51.630;7.254;2023-02-01T13:20:32;17.47;;;4.87;;
13941;SDS011;7043;51.630;7.254;2023-02-01T13:23:09;12.57;;;3.43;;
13941;SDS011;7043;51.630;7.254;2023-02-01T13:25:49;11.00;;;3.60;;
13941;SDS011;7043;51.630;7.254;2023-02-01T13:28:16;15.17;;;5.73;;
13941;SDS011;7043;51.630;7.254;2023-02-01T13:33:55;15.47;;;5.77;;
13941;SDS011;7043;51.630;7.254;2023-02-01T13:45:17;18.50;;;6.37;;
13941;SDS011;7043;51.630;7.254;2023-02-01T13:47:46;11.43;;;4.50;;
13941;SDS011;7043;51.630;7.254;2023-02-01T13:53:04;13.17;;;6.00;;
13941;SDS011;7043;51.630;7.254;2023-02-01T13:58:22;13.10;;;3.00;;
13941;SDS011;7043;51.630;7.254;2023-02-01T14:01:31;18.27;;;6.37;;
13941;SDS011;7043;51.630;7.254;2023-02-01T14:03:55;15.17;;;5.30;;
13941;SDS011;7043;51.630;7.254;2023-02-01T14:19:24;18.60;;;6.13;;
13941;SDS011;7043;51.630;7.254;2023-02-01T14:24:49;13.50;;;4.30;;
13941;SDS011;7043;51.630;7.254;2023-02-01T14:27:19;18.40;;;6.33;;
13941;SDS011;7043;51.630;7.254;2023-02-01T14:29:51;15.47;;;6.20;;
13941;SDS011;7043;51.630;7.254;2023-02-01T14:32:30;12.90;;;4.43;;
13941;SDS011;7043;51.630;7.254;2023-02-01T14:35:00;11.77;;;4.33;;
13941;SDS011;7043;51.630;7.254;2023-02-01T14:37:30;16.73;;;6.67;;
13941;SDS011;7043;51.630;7.254;2023-02-01T14:40:01;14.57;;;5.20;;
13941;SDS011;7043;51.630;7.254;2023-02-01T14:42:45;19.63;;;4.93;;
13941;SDS011;7043;51.630;7.254;2023-02-01T14:47:47;14.73;;;3.77;;
13941;SDS011;7043;51.630;7.254;2023-02-01T14:50:36;13.57;;;4.27;;
13941;SDS011;7043;51.630;7.254;2023-02-01T14:53:04;15.97;;;5.13;;
13941;SDS011;7043;51.630;7.254;2023-02-01T15:00:50;15.20;;;5.97;;
13941;SDS011;7043;51.630;7.254;2023-02-01T15:08:33;10.13;;;4.43;;
13941;SDS011;7043;51.630;7.254;2023-02-01T15:11:06;10.23;;;3.43;;
13941;SDS011;7043;51.630;7.254;2023-02-01T15:13:32;11.80;;;4.30;;
13941;SDS011;7043;51.630;7.254;2023-02-01T15:16:12;12.40;;;4.27;;
13941;SDS011;7043;51.630;7.254;2023-02-01T15:21:18;15.87;;;5.90;;
13941;SDS011;7043;51.630;7.254;2023-02-01T15:24:09;11.13;;;3.33;;
13941;SDS011;7043;51.630;7.254;2023-02-01T15:26:52;14.50;;;6.07;;
13941;SDS011;7043;51.630;7.254;2023-02-01T15:29:19;10.23;;;4.67;;
13941;SDS011;7043;51.630;7.254;2023-02-01T15:31:54;9.40;;;2.93;;
13941;SDS011;7043;51.630;7.254;2023-02-01T15:34:23;12.50;;;4.67;;
13941;SDS011;7043;51.630;7.254;2023-02-01T15:37:04;8.77;;;2.70;;
13941;SDS011;7043;51.630;7.254;2023-02-01T15:39:30;16.03;;;4.27;;
13941;SDS011;7043;51.630;7.254;2023-02-01T15:41:58;17.63;;;6.50;;
13941;SDS011;7043;51.630;7.254;2023-02-01T15:44:31;16.90;;;4.40;;
13941;SDS011;7043;51.630;7.254;2023-02-01T15:46:58;22.50;;;3.70;;
13941;SDS011;7043;51.630;7.254;2023-02-01T15:51:59;10.10;;;3.10;;
13941;SDS011;7043;51.630;7.254;2023-02-01T15:57:27;19.57;;;6.73;;
13941;SDS011;7043;51.630;7.254;2023-02-01T16:00:39;20.97;;;9.53;;
13941;SDS011;7043;51.630;7.254;2023-02-01T16:02:57;15.37;;;5.97;;
13941;SDS011;7043;51.630;7.254;2023-02-01T16:08:14;11.40;;;3.50;;
13941;SDS011;7043;51.630;7.254;2023-02-01T16:16:28;12.67;;;3.23;;
13941;SDS011;7043;51.630;7.254;2023-02-01T16:18:54;11.90;;;4.53;;
13941;SDS011;7043;51.630;7.254;2023-02-01T16:21:20;16.63;;;4.60;;
13941;SDS011;7043;51.630;7.254;2023-02-01T16:23:50;8.60;;;3.60;;
13941;SDS011;7043;51.630;7.254;2023-02-01T16:26:29;15.67;;;4.57;;
13941;SDS011;7043;51.630;7.254;2023-02-01T16:29:01;17.63;;;4.00;;
13941;SDS011;7043;51.630;7.254;2023-02-01T16:31:34;12.87;;;4.63;;
13941;SDS011;7043;51.630;7.254;2023-02-01T16:34:02;18.87;;;5.57;;
13941;SDS011;7043;51.630;7.254;2023-02-01T16:36:41;15.33;;;4.53;;
13941;SDS011;7043;51.630;7.254;2023-02-01T16:39:10;11.07;;;3.67;;
13941;SDS011;7043;51.630;7.254;2023-02-01T16:41:43;13.73;;;4.03;;
13941;SDS011;7043;51.630;7.254;2023-02-01T16:44:14;19.80;;;4.57;;
13941;SDS011;7043;51.630;7.254;2023-02-01T16:46:41;6.53;;;2.80;;
13941;SDS011;7043;51.630;7.254;2023-02-01T16:49:15;14.33;;;4.13;;
13941;SDS011;7043;51.630;7.254;2023-02-01T16:51:48;13.53;;;5.23;;
13941;SDS011;7043;51.630;7.254;2023-02-01T16:54:15;10.67;;;4.13;;
13941;SDS011;7043;51.630;7.254;2023-02-01T16:56:41;11.17;;;5.27;;
13941;SDS011;7043;51.630;7.254;2023-02-01T17:01:39;3.93;;;1.73;;
13941;SDS011;7043;51.630;7.254;2023-02-01T17:04:06;7.90;;;3.63;;
13941;SDS011;7043;51.630;7.254;2023-02-01T17:06:34;8.70;;;3.23;;
13941;SDS011;7043;51.630;7.254;2023-02-01T17:11:32;7.80;;;2.37;;
13941;SDS011;7043;51.630;7.254;2023-02-01T17:14:15;6.83;;;2.60;;
13941;SDS011;7043;51.630;7.254;2023-02-01T17:16:41;4.53;;;2.23;;
13941;SDS011;7043;51.630;7.254;2023-02-01T17:19:12;5.53;;;3.00;;
13941;SDS011;7043;51.630;7.254;2023-02-01T17:21:44;4.40;;;2.07;;
13941;SDS011;7043;51.630;7.254;2023-02-01T17:24:13;8.20;;;2.80;;
13941;SDS011;7043;51.630;7.254;2023-02-01T17:26:44;6.13;;;2.40;;
13941;SDS011;7043;51.630;7.254;2023-02-01T17:32:03;7.63;;;3.43;;
13941;SDS011;7043;51.630;7.254;2023-02-01T17:34:29;11.57;;;5.57;;
13941;SDS011;7043;51.630;7.254;2023-02-01T17:36:55;8.30;;;4.00;;
13941;SDS011;7043;51.630;7.254;2023-02-01T17:39:23;12.90;;;6.73;;
13941;SDS011;7043;51.630;7.254;2023-02-01T17:42:09;7.33;;;3.40;;
13941;SDS011;7043;51.630;7.254;2023-02-01T17:44:36;6.57;;;2.67;;
13941;SDS011;7043;51.630;7.254;2023-02-01T17:47:02;7.87;;;4.50;;
13941;SDS011;7043;51.630;7.254;2023-02-01T17:49:28;8.10;;;4.03;;
13941;SDS011;7043;51.630;7.254;2023-02-01T17:51:55;7.70;;;4.37;;
13941;SDS011;7043;51.630;7.254;2023-02-01T17:54:30;11.43;;;5.67;;
13941;SDS011;7043;51.630;7.254;2023-02-01T17:57:07;10.53;;;5.33;;
13941;SDS011;7043;51.630;7.254;2023-02-01T17:59:36;13.70;;;5.07;;
13941;SDS011;7043;51.630;7.254;2023-02-01T18:02:18;11.87;;;4.60;;
13941;SDS011;7043;51.630;7.254;2023-02-01T18:04:46;9.57;;;5.57;;